createdAt,value
2022-12-24T00:00:03.941Z,94755.94
2022-12-24T00:02:36.653Z,94750.53
2022-12-24T00:05:08.495Z,94750.91
2022-12-24T00:07:37.787Z,94757.38
2022-12-24T00:10:07.795Z,94758.19
2022-12-24T00:12:37.119Z,94759.00
2022-12-24T00:15:08.408Z,94768.97
2022-12-24T00:17:37.737Z,94753.06
2022-12-24T00:20:10.474Z,94751.25
2022-12-24T00:22:39.589Z,94752.31
2022-12-24T00:25:09.154Z,94746.84
2022-12-24T00:27:38.873Z,94749.00
2022-12-24T00:30:09.235Z,94751.81
2022-12-24T00:32:39.154Z,94751.44
2022-12-24T00:35:10.504Z,94757.72
2022-12-24T00:37:40.359Z,94760.78
2022-12-24T00:40:10.804Z,94761.56
2022-12-24T00:42:41.419Z,94771.97
2022-12-24T00:45:12.109Z,94774.56
2022-12-24T00:47:41.521Z,94786.00
2022-12-24T00:50:12.315Z,94778.63
2022-12-24T00:52:41.593Z,94776.59
2022-12-24T00:55:11.822Z,94772.75
2022-12-24T00:57:42.977Z,94781.22
2022-12-24T01:00:12.915Z,94782.47
2022-12-24T01:02:42.159Z,94775.38
2022-12-24T01:05:12.977Z,94779.97
2022-12-24T01:07:44.991Z,94777.59
2022-12-24T01:10:16.591Z,94777.75
2022-12-24T01:12:46.155Z,94770.16
2022-12-24T01:15:16.694Z,94765.31
2022-12-24T01:17:45.833Z,94772.91
2022-12-24T01:20:18.405Z,94771.28
2022-12-24T01:22:49.092Z,94772.91
2022-12-24T01:25:18.394Z,94766.25
2022-12-24T01:27:47.525Z,94774.72
2022-12-24T01:30:16.829Z,94781.69
2022-12-24T01:32:45.947Z,94769.94
2022-12-24T01:35:16.592Z,94763.09
2022-12-24T01:37:45.768Z,94768.44
2022-12-24T01:40:35.103Z,94764.59
2022-12-24T01:43:21.730Z,94768.75
2022-12-24T01:45:52.488Z,94769.34
2022-12-24T01:48:27.974Z,94766.16
2022-12-24T01:51:04.046Z,94760.13
2022-12-24T01:53:36.285Z,94753.59
2022-12-24T01:56:07.966Z,94759.06
2022-12-24T01:58:39.299Z,94756.81
2022-12-24T02:01:09.048Z,94750.63
2022-12-24T02:03:38.372Z,94749.75
2022-12-24T02:06:12.157Z,94752.97
2022-12-24T02:08:41.696Z,94767.63
2022-12-24T02:11:15.366Z,94755.50
2022-12-24T02:13:46.603Z,94768.25
2022-12-24T02:16:25.478Z,94775.78
2022-12-24T02:19:06.521Z,94764.19
2022-12-24T02:21:59.475Z,94761.59
2022-12-24T02:25:05.907Z,94765.47
2022-12-24T02:27:43.669Z,94767.00
2022-12-24T02:30:16.751Z,94766.19
2022-12-24T02:32:48.345Z,94758.41
2022-12-24T02:35:21.989Z,94754.41
2022-12-24T02:37:57.886Z,94754.25
2022-12-24T02:40:31.321Z,94748.22
2022-12-24T02:43:06.461Z,94748.03
2022-12-24T02:45:38.373Z,94749.50
2022-12-24T02:48:08.574Z,94751.47
2022-12-24T02:50:37.763Z,94744.28
2022-12-24T02:53:10.986Z,94742.13
2022-12-24T02:55:50.519Z,94743.59
2022-12-24T02:58:35.582Z,94738.03
2022-12-24T03:01:18.089Z,94738.19
2022-12-24T03:04:01.063Z,94741.97
2022-12-24T03:06:40.687Z,94732.88
2022-12-24T03:09:20.979Z,94735.50
2022-12-24T03:11:57.234Z,94728.06
2022-12-24T03:14:28.129Z,94727.66
2022-12-24T03:17:00.479Z,94720.88
2022-12-24T03:19:33.036Z,94725.50
2022-12-24T03:22:05.832Z,94721.28
2022-12-24T03:24:34.987Z,94732.97
2022-12-24T03:27:07.234Z,94734.59
2022-12-24T03:29:36.552Z,94735.22
2022-12-24T03:32:07.272Z,94740.81
2022-12-24T03:34:36.495Z,94737.22
2022-12-24T03:37:05.929Z,94739.81
2022-12-24T03:39:35.057Z,94745.38
2022-12-24T03:42:05.200Z,94747.56
2022-12-24T03:44:34.292Z,94742.97
2022-12-24T03:47:03.528Z,94753.97
2022-12-24T03:49:34.690Z,94756.28
2022-12-24T03:52:04.089Z,94758.38
2022-12-24T03:54:33.868Z,94756.38
2022-12-24T03:57:04.506Z,94755.81
2022-12-24T03:59:33.766Z,94765.91
2022-12-24T04:02:03.042Z,94758.13
2022-12-24T04:04:37.152Z,94761.72
2022-12-24T04:07:08.118Z,94768.19
2022-12-24T04:09:37.345Z,94768.50
2022-12-24T04:12:07.242Z,94771.78
2022-12-24T04:14:36.464Z,94771.97
2022-12-24T04:17:05.776Z,94769.34
2022-12-24T04:19:36.653Z,94776.56
2022-12-24T04:22:05.782Z,94775.22
2022-12-24T04:24:36.134Z,94780.84
2022-12-24T04:27:05.444Z,94779.31
2022-12-24T04:29:34.502Z,94765.34
2022-12-24T04:32:03.740Z,94767.84
2022-12-24T04:34:32.854Z,94772.03
2022-12-24T04:37:04.013Z,94773.47
2022-12-24T04:39:33.673Z,94770.69
2022-12-24T04:42:02.848Z,94766.44
2022-12-24T04:44:32.317Z,94765.41
2022-12-24T04:47:01.443Z,94769.34
2022-12-24T04:49:30.810Z,94764.44
2022-12-24T04:52:05.994Z,94771.34
2022-12-24T04:54:36.752Z,94769.28
2022-12-24T04:57:06.157Z,94757.41
2022-12-24T04:59:35.236Z,94757.50
2022-12-24T05:02:05.808Z,94754.72
2022-12-24T05:04:35.731Z,94755.16
2022-12-24T05:07:06.970Z,94766.16
2022-12-24T05:09:37.773Z,94763.19
2022-12-24T05:12:07.302Z,94761.75
2022-12-24T05:14:36.516Z,94761.03
2022-12-24T05:17:05.672Z,94767.22
2022-12-24T05:19:34.992Z,94756.78
2022-12-24T05:22:28.836Z,94753.81
2022-12-24T05:25:16.927Z,94745.06
2022-12-24T05:27:51.024Z,94746.50
2022-12-24T05:30:20.822Z,94743.75
2022-12-24T05:32:50.102Z,94729.91
2022-12-24T05:35:19.315Z,94744.81
2022-12-24T05:37:48.595Z,94751.22
2022-12-24T05:40:19.631Z,94751.59
2022-12-24T05:42:48.749Z,94757.34
2022-12-24T05:45:18.248Z,94753.41
2022-12-24T05:47:47.481Z,94761.78
2022-12-24T05:50:16.696Z,94758.13
2022-12-24T05:52:47.002Z,94758.66
2022-12-24T05:55:16.321Z,94760.72
2022-12-24T05:57:47.320Z,94762.22
2022-12-24T06:00:17.056Z,94761.91
2022-12-24T06:02:47.066Z,94759.56
2022-12-24T06:05:16.408Z,94766.81
2022-12-24T06:07:45.570Z,94768.72
2022-12-24T06:10:14.701Z,94764.09
2022-12-24T06:12:44.386Z,94767.53
2022-12-24T06:15:20.310Z,94768.94
2022-12-24T06:17:53.209Z,94779.03
2022-12-24T06:20:22.503Z,94775.41
2022-12-24T06:22:52.209Z,94778.28
2022-12-24T06:25:21.440Z,94776.50
2022-12-24T06:27:50.669Z,94775.91
2022-12-24T06:30:21.543Z,94784.41
2022-12-24T06:32:51.395Z,94782.25
2022-12-24T06:35:20.776Z,94778.09
2022-12-24T06:37:50.661Z,94776.06
2022-12-24T06:40:20.633Z,94780.75
2022-12-24T06:42:49.895Z,94781.81
2022-12-24T06:45:20.851Z,94778.44
2022-12-24T06:47:50.164Z,94776.47
2022-12-24T06:50:19.572Z,94783.16
2022-12-24T06:52:48.895Z,94775.63
2022-12-24T06:55:19.479Z,94780.94
2022-12-24T06:57:49.287Z,94785.34
2022-12-24T07:00:19.948Z,94785.00
2022-12-24T07:02:50.824Z,94783.44
2022-12-24T07:05:20.494Z,94784.19
2022-12-24T07:07:50.093Z,94784.16
2022-12-24T07:10:20.352Z,94789.91
2022-12-24T07:12:50.644Z,94785.53
2022-12-24T07:15:19.802Z,94785.44
2022-12-24T07:17:50.952Z,94790.03
2022-12-24T07:20:20.459Z,94787.06
2022-12-24T07:22:49.968Z,94796.34
2022-12-24T07:25:19.293Z,94801.84
2022-12-24T07:27:48.605Z,94798.06
2022-12-24T07:30:18.299Z,94812.84
2022-12-24T07:32:47.560Z,94803.06
2022-12-24T07:35:18.398Z,94801.91
2022-12-24T07:37:47.792Z,94811.03
2022-12-24T07:40:20.615Z,94809.03
2022-12-24T07:43:13.097Z,94805.03
2022-12-24T07:45:42.948Z,94817.34
2022-12-24T07:48:13.349Z,94818.34
2022-12-24T07:50:44.094Z,94819.13
2022-12-24T07:53:13.413Z,94822.19
2022-12-24T07:55:42.608Z,94811.47
2022-12-24T07:58:11.897Z,94820.97
2022-12-24T08:00:41.123Z,94825.19
2022-12-24T08:03:18.303Z,94821.34
2022-12-24T08:05:50.260Z,94814.09
2022-12-24T08:08:19.473Z,94803.06
2022-12-24T08:10:48.649Z,94808.50
2022-12-24T08:13:17.950Z,94820.88
2022-12-24T08:15:47.595Z,94836.81
2022-12-24T08:18:16.812Z,94846.72
2022-12-24T08:20:49.939Z,94834.78
2022-12-24T08:23:19.330Z,94837.88
2022-12-24T08:25:50.309Z,94831.63
2022-12-24T08:28:21.572Z,94834.66
2022-12-24T08:30:52.185Z,94836.28
2022-12-24T08:33:22.450Z,94836.09
2022-12-24T08:35:55.091Z,94832.66
2022-12-24T08:38:24.649Z,94836.09
2022-12-24T08:40:55.493Z,94837.31
2022-12-24T08:43:25.781Z,94845.00
2022-12-24T08:45:55.487Z,94838.75
2022-12-24T08:48:24.597Z,94840.34
2022-12-24T08:50:55.187Z,94841.53
2022-12-24T08:53:24.254Z,94840.75
2022-12-24T08:55:56.195Z,94838.09
2022-12-24T08:58:25.855Z,94840.50
2022-12-24T09:00:55.148Z,94840.88
2022-12-24T09:03:27.780Z,94835.78
2022-12-24T09:05:59.478Z,94837.19
2022-12-24T09:08:29.426Z,94833.34
2022-12-24T09:10:58.539Z,94822.84
2022-12-24T09:13:27.757Z,94826.50
2022-12-24T09:15:57.250Z,94824.06
2022-12-24T09:18:26.868Z,94822.03
2022-12-24T09:21:03.133Z,94820.31
2022-12-24T09:23:34.000Z,94819.22
2022-12-24T09:26:07.070Z,94807.94
2022-12-24T09:28:36.666Z,94811.66
2022-12-24T09:31:07.365Z,94809.63
2022-12-24T09:33:38.661Z,94815.72
2022-12-24T09:36:10.112Z,94811.69
2022-12-24T09:38:40.483Z,94804.25
2022-12-24T09:41:24.130Z,94802.63
2022-12-24T09:44:01.085Z,94807.88
2022-12-24T09:46:34.074Z,94809.69
2022-12-24T09:49:08.548Z,94813.94
2022-12-24T09:51:43.511Z,94821.19
2022-12-24T09:54:17.829Z,94816.34
2022-12-24T09:56:48.953Z,94811.72
2022-12-24T09:59:21.480Z,94811.88
2022-12-24T10:01:52.468Z,94809.28
2022-12-24T10:04:28.594Z,94804.44
2022-12-24T10:07:07.696Z,94799.19
2022-12-24T10:09:50.727Z,94801.19
2022-12-24T10:12:24.723Z,94801.16
2022-12-24T10:15:03.379Z,94799.34
2022-12-24T10:17:47.324Z,94800.75
2022-12-24T10:20:43.759Z,94800.31
2022-12-24T10:23:21.360Z,94799.47
2022-12-24T10:25:58.319Z,94801.66
2022-12-24T10:28:34.000Z,94793.56
2022-12-24T10:31:07.495Z,94794.97
2022-12-24T10:33:43.994Z,94801.44
2022-12-24T10:36:18.773Z,94798.56
2022-12-24T10:38:49.464Z,94799.38
2022-12-24T10:41:18.917Z,94802.75
2022-12-24T10:43:50.364Z,94812.63
2022-12-24T10:46:22.883Z,94811.97
2022-12-24T10:48:56.900Z,94805.03
2022-12-24T10:51:36.992Z,94804.34
2022-12-24T10:54:19.518Z,94800.66
2022-12-24T10:56:54.042Z,94793.28
2022-12-24T10:59:28.917Z,94799.06
2022-12-24T11:02:00.007Z,94803.44
2022-12-24T11:04:31.903Z,94803.56
2022-12-24T11:07:02.501Z,94799.38
2022-12-24T11:09:35.436Z,94797.00
2022-12-24T11:12:09.676Z,94793.72
2022-12-24T11:14:40.929Z,94786.88
2022-12-24T11:17:22.537Z,94794.75
2022-12-24T11:19:52.611Z,94794.38
2022-12-24T11:22:26.714Z,94797.94
2022-12-24T11:25:05.233Z,94798.22
2022-12-24T11:27:41.985Z,94797.69
2022-12-24T11:30:32.094Z,94795.91
2022-12-24T11:33:22.044Z,94801.97
2022-12-24T11:35:55.808Z,94801.56
2022-12-24T11:38:41.957Z,94799.81
2022-12-24T11:41:14.099Z,94782.75
2022-12-24T11:43:48.610Z,94770.00
2022-12-24T11:46:23.862Z,94770.00
2022-12-24T11:49:25.930Z,94771.41
2022-12-24T11:52:25.902Z,94758.88
2022-12-24T11:55:19.511Z,94758.50
2022-12-24T11:58:02.581Z,94773.91
2022-12-24T12:00:32.330Z,94782.97
2022-12-24T12:03:07.034Z,94769.97
2022-12-24T12:05:38.553Z,94781.78
2022-12-24T12:08:16.335Z,94782.81
2022-12-24T12:10:47.432Z,94784.19
2022-12-24T12:13:23.106Z,94778.50
2022-12-24T12:16:03.068Z,94783.72
2022-12-24T12:18:38.075Z,94773.22
2022-12-24T12:21:12.685Z,94770.59
2022-12-24T12:23:47.636Z,94778.84
2022-12-24T12:26:23.813Z,94769.41
2022-12-24T12:28:58.917Z,94778.25
2022-12-24T12:31:34.452Z,94781.47
2022-12-24T12:34:09.917Z,94785.63
2022-12-24T12:36:45.469Z,94781.94
2022-12-24T12:39:14.775Z,94778.66
2022-12-24T12:41:56.587Z,94781.53
2022-12-24T12:44:53.450Z,94778.09
2022-12-24T12:47:51.404Z,94784.44
2022-12-24T12:50:27.156Z,94785.69
2022-12-24T12:53:09.248Z,94788.31
2022-12-24T12:55:48.250Z,94782.94
2022-12-24T12:58:24.873Z,94786.63
2022-12-24T13:01:01.976Z,94789.94
2022-12-24T13:04:07.203Z,94788.81
2022-12-24T13:07:14.162Z,94793.41
2022-12-24T13:10:07.856Z,94798.25
2022-12-24T13:12:54.298Z,94799.16
2022-12-24T13:15:42.125Z,94803.34
2022-12-24T13:18:29.564Z,94807.91
2022-12-24T13:20:58.944Z,94803.09
2022-12-24T13:23:29.754Z,94805.84
2022-12-24T13:26:00.652Z,94818.00
2022-12-24T13:28:35.843Z,94826.53
2022-12-24T13:31:30.516Z,94827.56
2022-12-24T13:34:04.288Z,94825.59
2022-12-24T13:37:25.025Z,94821.38
2022-12-24T13:40:18.986Z,94832.25
2022-12-24T13:42:53.551Z,94829.03
2022-12-24T13:45:48.389Z,94822.19
2022-12-24T13:48:34.318Z,94827.09
2022-12-24T13:51:21.644Z,94830.78
2022-12-24T13:53:51.363Z,94832.03
2022-12-24T13:56:27.361Z,94833.63
2022-12-24T13:59:11.550Z,94832.25
2022-12-24T14:01:43.615Z,94836.41
2022-12-24T14:04:27.494Z,94836.25
2022-12-24T14:07:02.905Z,94832.81
2022-12-24T14:09:33.641Z,94832.00
2022-12-24T14:12:34.927Z,94829.69
2022-12-24T14:15:37.425Z,94835.31
2022-12-24T14:18:07.436Z,94836.91
2022-12-24T14:20:39.094Z,94843.09
2022-12-24T14:23:25.714Z,94840.59
2022-12-24T14:25:55.626Z,94842.88
2022-12-24T14:28:31.753Z,94845.50
2022-12-24T14:31:05.729Z,94836.66
2022-12-24T14:33:36.567Z,94843.00
2022-12-24T14:36:06.361Z,94843.75
2022-12-24T14:39:03.509Z,94857.00
2022-12-24T14:41:47.740Z,94847.13
2022-12-24T14:44:32.453Z,94852.81
2022-12-24T14:47:18.279Z,94847.19
2022-12-24T14:50:05.263Z,94854.38
2022-12-24T14:53:04.679Z,94855.72
2022-12-24T14:55:39.605Z,94860.25
2022-12-24T14:58:25.790Z,94869.84
2022-12-24T15:00:57.651Z,94876.56
2022-12-24T15:03:32.189Z,94872.75
2022-12-24T15:06:05.551Z,94883.41
2022-12-24T15:08:58.029Z,94878.88
2022-12-24T15:11:29.231Z,94881.38
2022-12-24T15:14:01.211Z,94881.34
2022-12-24T15:16:35.086Z,94884.56
2022-12-24T15:19:08.236Z,94891.44
2022-12-24T15:21:41.763Z,94886.09
2022-12-24T15:24:27.665Z,94880.22
2022-12-24T15:26:59.268Z,94887.94
2022-12-24T15:29:30.897Z,94888.09
2022-12-24T15:32:05.304Z,94894.16
2022-12-24T15:34:38.891Z,94897.63
2022-12-24T15:37:15.652Z,94906.38
2022-12-24T15:39:46.459Z,94892.59
2022-12-24T15:42:22.908Z,94895.25
2022-12-24T15:45:00.988Z,94888.00
2022-12-24T15:47:38.618Z,94890.94
2022-12-24T15:50:17.390Z,94892.94
2022-12-24T15:52:47.831Z,94902.81
2022-12-24T15:55:41.601Z,94902.97
2022-12-24T15:58:28.201Z,94912.63
2022-12-24T16:01:07.387Z,94916.66
2022-12-24T16:03:38.271Z,94914.97
2022-12-24T16:06:08.903Z,94924.66
2022-12-24T16:08:40.297Z,94938.78
2022-12-24T16:11:17.884Z,94935.19
2022-12-24T16:14:02.599Z,94950.59
2022-12-24T16:16:37.179Z,94948.59
2022-12-24T16:19:08.856Z,94953.66
2022-12-24T16:21:41.283Z,94959.66
2022-12-24T16:24:18.003Z,94963.47
2022-12-24T16:26:48.299Z,94970.28
2022-12-24T16:29:20.018Z,94965.31
2022-12-24T16:31:52.790Z,94976.28
2022-12-24T16:34:24.964Z,94974.31
2022-12-24T16:36:54.421Z,94969.84
2022-12-24T16:39:26.039Z,94976.50
2022-12-24T16:42:13.990Z,94994.22
2022-12-24T16:44:45.403Z,94999.56
2022-12-24T16:47:19.238Z,95002.84
2022-12-24T16:49:48.538Z,95005.91
2022-12-24T16:52:22.686Z,95007.75
2022-12-24T16:54:52.125Z,95015.44
2022-12-24T16:57:23.449Z,95005.31
2022-12-24T16:59:54.347Z,95011.84
2022-12-24T17:02:26.775Z,95006.69
2022-12-24T17:04:56.981Z,95017.38
2022-12-24T17:07:26.424Z,95001.19
2022-12-24T17:09:55.969Z,95007.47
2022-12-24T17:12:25.481Z,95004.97
2022-12-24T17:14:56.327Z,94997.50
2022-12-24T17:17:28.488Z,95000.91
2022-12-24T17:20:00.968Z,95008.44
2022-12-24T17:22:30.177Z,95015.00
2022-12-24T17:24:59.870Z,95017.44
2022-12-24T17:27:29.286Z,95009.56
2022-12-24T17:30:00.127Z,95022.84
2022-12-24T17:32:29.586Z,95021.78
2022-12-24T17:35:03.272Z,95022.81
2022-12-24T17:37:35.576Z,95032.34
2022-12-24T17:40:05.367Z,95028.78
2022-12-24T17:42:34.541Z,95030.75
2022-12-24T17:45:05.939Z,95023.66
2022-12-24T17:47:35.233Z,95020.91
2022-12-24T17:50:04.868Z,95028.09
2022-12-24T17:52:35.061Z,95022.59
2022-12-24T17:55:04.361Z,95014.84
2022-12-24T17:57:34.356Z,95004.03
2022-12-24T18:00:05.815Z,95012.69
2022-12-24T18:02:35.900Z,95012.50
2022-12-24T18:05:05.447Z,95013.41
2022-12-24T18:07:34.816Z,95019.66
2022-12-24T18:10:05.086Z,95020.28
2022-12-24T18:12:34.424Z,95034.16
2022-12-24T18:15:06.422Z,95036.94
2022-12-24T18:17:36.264Z,95033.50
2022-12-24T18:20:05.914Z,95049.28
2022-12-24T18:22:35.703Z,95045.63
2022-12-24T18:25:05.486Z,95061.44
2022-12-24T18:27:37.330Z,95053.34
2022-12-24T18:30:10.906Z,95045.50
2022-12-24T18:32:40.821Z,95068.66
2022-12-24T18:35:11.428Z,95075.31
2022-12-24T18:37:41.175Z,95071.00
2022-12-24T18:40:11.935Z,95076.66
2022-12-24T18:42:42.885Z,95074.25
2022-12-24T18:45:14.180Z,95074.66
2022-12-24T18:47:43.623Z,95070.19
2022-12-24T18:50:13.120Z,95080.53
2022-12-24T18:52:42.440Z,95084.63
2022-12-24T18:55:12.753Z,95080.16
2022-12-24T18:57:42.535Z,95087.31
2022-12-24T19:00:17.540Z,95092.00
2022-12-24T19:02:47.205Z,95090.88
2022-12-24T19:05:18.676Z,95093.00
2022-12-24T19:07:48.200Z,95097.75
2022-12-24T19:10:18.191Z,95099.19
2022-12-24T19:12:48.033Z,95097.38
2022-12-24T19:15:20.399Z,95096.19
2022-12-24T19:17:49.504Z,95107.16
2022-12-24T19:20:20.114Z,95101.06
2022-12-24T19:22:49.503Z,95096.03
2022-12-24T19:25:22.287Z,95102.72
2022-12-24T19:27:52.281Z,95099.72
2022-12-24T19:30:23.539Z,95104.41
2022-12-24T19:32:52.980Z,95099.53
2022-12-24T19:35:22.579Z,95099.94
2022-12-24T19:37:52.334Z,95097.72
2022-12-24T19:40:23.209Z,95105.22
2022-12-24T19:42:55.512Z,95104.34
2022-12-24T19:45:26.853Z,95099.94
2022-12-24T19:47:56.869Z,95106.03
2022-12-24T19:50:26.354Z,95100.88
2022-12-24T19:52:55.758Z,95099.63
2022-12-24T19:55:25.031Z,95091.91
2022-12-24T19:57:54.960Z,95085.06
2022-12-24T20:00:26.280Z,95086.41
2022-12-24T20:02:58.769Z,95084.34
2022-12-24T20:05:28.111Z,95088.38
2022-12-24T20:07:58.194Z,95101.50
2022-12-24T20:10:27.547Z,95108.81
2022-12-24T20:13:02.246Z,95106.16
2022-12-24T20:15:43.046Z,95118.16
2022-12-24T20:18:15.245Z,95125.72
2022-12-24T20:20:47.455Z,95117.94
2022-12-24T20:23:16.816Z,95121.97
2022-12-24T20:25:48.185Z,95124.88
2022-12-24T20:28:18.058Z,95126.28
2022-12-24T20:30:51.133Z,95126.03
2022-12-24T20:33:20.650Z,95120.34
2022-12-24T20:35:50.710Z,95125.81
2022-12-24T20:38:20.518Z,95129.66
2022-12-24T20:40:49.918Z,95136.03
2022-12-24T20:43:24.101Z,95133.38
2022-12-24T20:45:58.332Z,95143.56
2022-12-24T20:48:28.980Z,95150.03
2022-12-24T20:50:59.776Z,95145.59
2022-12-24T20:53:34.324Z,95156.38
2022-12-24T20:56:03.632Z,95165.88
2022-12-24T20:58:32.931Z,95167.31
2022-12-24T21:01:10.127Z,95169.94
2022-12-24T21:03:41.264Z,95175.19
2022-12-24T21:06:11.609Z,95167.94
2022-12-24T21:08:40.887Z,95167.75
2022-12-24T21:11:29.753Z,95162.47
2022-12-24T21:13:59.360Z,95165.72
2022-12-24T21:16:31.163Z,95169.13
2022-12-24T21:19:00.786Z,95178.03
2022-12-24T21:21:30.197Z,95177.22
2022-12-24T21:23:59.636Z,95185.31
2022-12-24T21:26:29.352Z,95186.13
2022-12-24T21:28:58.814Z,95192.22
2022-12-24T21:31:28.429Z,95193.22
2022-12-24T21:33:59.932Z,95205.97
2022-12-24T21:36:31.821Z,95199.75
2022-12-24T21:39:01.321Z,95190.81
2022-12-24T21:41:33.529Z,95188.78
2022-12-24T21:44:03.785Z,95187.16
2022-12-24T21:46:33.081Z,95180.88
2022-12-24T21:49:26.842Z,95181.06
2022-12-24T21:51:56.234Z,95166.50
2022-12-24T21:54:24.308Z,95156.56
2022-12-24T21:57:11.862Z,95160.00
2022-12-24T21:59:41.522Z,95158.44
2022-12-24T22:02:13.466Z,95158.25
2022-12-24T22:04:44.978Z,95156.84
2022-12-24T22:07:41.101Z,95156.66
2022-12-24T22:10:28.938Z,95161.38
2022-12-24T22:13:06.486Z,95150.41
2022-12-24T22:15:36.134Z,95151.81
2022-12-24T22:18:05.493Z,95159.28
2022-12-24T22:20:36.225Z,95156.28
2022-12-24T22:23:06.383Z,95157.06
2022-12-24T22:25:35.795Z,95154.88
2022-12-24T22:28:11.373Z,95151.03
2022-12-24T22:30:43.029Z,95155.47
2022-12-24T22:33:13.310Z,95151.81
2022-12-24T22:35:44.019Z,95149.41
2022-12-24T22:38:13.354Z,95147.41
2022-12-24T22:40:43.769Z,95157.03
2022-12-24T22:43:12.976Z,95152.16
2022-12-24T22:45:42.410Z,95155.19
2022-12-24T22:48:11.633Z,95156.31
2022-12-24T22:50:43.746Z,95158.72
2022-12-24T22:53:12.813Z,95157.06
2022-12-24T22:55:41.994Z,95159.66
2022-12-24T22:58:11.470Z,95161.78
2022-12-24T23:00:43.525Z,95176.97
2022-12-24T23:03:13.759Z,95177.34
2022-12-24T23:05:45.167Z,95170.00
2022-12-24T23:08:15.334Z,95177.56
2022-12-24T23:10:44.401Z,95182.69
2022-12-24T23:13:31.992Z,95179.06
2022-12-24T23:16:03.787Z,95172.81
2022-12-24T23:18:34.259Z,95174.34
2022-12-24T23:21:08.616Z,95185.19
2022-12-24T23:23:37.912Z,95186.63
2022-12-24T23:26:13.053Z,95181.16
2022-12-24T23:28:42.575Z,95189.25
2022-12-24T23:31:12.010Z,95197.00
2022-12-24T23:33:41.152Z,95205.50
2022-12-24T23:36:12.290Z,95212.41
2022-12-24T23:38:41.990Z,95206.13
2022-12-24T23:41:11.819Z,95203.06
2022-12-24T23:43:41.470Z,95217.28
2022-12-24T23:46:14.371Z,95212.84
2022-12-24T23:48:43.835Z,95222.75
2022-12-24T23:51:16.910Z,95229.91
2022-12-24T23:53:45.675Z,95237.03
2022-12-24T23:56:15.563Z,95243.91
2022-12-24T23:58:47.428Z,95244.50
